Time;durP1;ratioP1;P1;durP2;ratioP2;P2;SDS_P1;SDS_P2;PMS_P1;PMS_P2;Temp;Humidity;BMP_temperature;BMP_pressure;BME280_temperature;BME280_humidity;BME280_pressure;Samples;Min_cycle;Max_cycle;Signal;HPM_P1;HPM_P2
2022/01/15 00:01:44;;;;;;;38.95;22.27;;;;;;;;;;5112212;28;20114;-66
2022/01/15 00:04:13;;;;;;;42.63;26.25;;;;;;;;;;5112911;28;20406;-68
2022/01/15 00:06:39;;;;;;;35.53;21.55;;;;;;;;;;5116274;28;20035;-65
2022/01/15 00:09:05;;;;;;;33.90;21.63;;;;;;;;;;5132314;27;20019;-67
2022/01/15 00:11:31;;;;;;;56.55;34.33;;;;;;;;;;5132777;28;20027;-70
2022/01/15 00:14:11;;;;;;;81.00;46.97;;;;;;;;;;5132796;28;20015;-71
2022/01/15 00:16:50;;;;;;;98.07;60.17;;;;;;;;;;5132728;28;20031;-69
2022/01/15 00:19:18;;;;;;;290.48;187.00;;;;;;;;;;5132654;28;20035;-69
2022/01/15 00:21:45;;;;;;;155.88;94.18;;;;;;;;;;5132446;28;20038;-73
2022/01/15 00:24:11;;;;;;;114.03;70.70;;;;;;;;;;5133091;28;20377;-66
2022/01/15 00:26:37;;;;;;;177.60;106.93;;;;;;;;;;5132630;28;20114;-66
2022/01/15 00:29:04;;;;;;;154.02;89.93;;;;;;;;;;5132540;28;20065;-70
2022/01/15 00:31:30;;;;;;;138.02;78.15;;;;;;;;;;5132916;28;20030;-66
2022/01/15 00:33:56;;;;;;;110.53;66.85;;;;;;;;;;5133005;28;20043;-70
2022/01/15 00:36:22;;;;;;;126.72;75.72;;;;;;;;;;5132647;28;20019;-70
2022/01/15 00:38:49;;;;;;;106.57;64.07;;;;;;;;;;5132719;28;20445;-71
2022/01/15 00:41:17;;;;;;;125.13;76.32;;;;;;;;;;5132663;28;20019;-72
2022/01/15 00:43:43;;;;;;;141.52;88.05;;;;;;;;;;5132285;28;20064;-73
2022/01/15 00:46:09;;;;;;;130.35;81.80;;;;;;;;;;5132630;28;20038;-70
2022/01/15 00:48:35;;;;;;;97.53;65.70;;;;;;;;;;5132438;28;20069;-67
2022/01/15 00:51:02;;;;;;;96.85;62.17;;;;;;;;;;5132459;28;20081;-66
2022/01/15 00:53:28;;;;;;;91.40;58.33;;;;;;;;;;5132051;28;20039;-64
2022/01/15 00:55:54;;;;;;;75.65;46.53;;;;;;;;;;5132400;28;20047;-66
2022/01/15 00:58:20;;;;;;;66.85;42.22;;;;;;;;;;5132495;28;20023;-69
2022/01/15 01:00:46;;;;;;;67.03;39.15;;;;;;;;;;5132694;28;20062;-66
2022/01/15 01:03:12;;;;;;;78.78;50.95;;;;;;;;;;5132471;28;20098;-71
2022/01/15 01:05:38;;;;;;;87.15;49.78;;;;;;;;;;5132174;28;20027;-70
2022/01/15 01:08:04;;;;;;;98.97;56.58;;;;;;;;;;5132295;28;20022;-68
2022/01/15 01:23:26;;;;;;;53.88;36.05;;;;;;;;;;5135666;27;20034;-66
2022/01/15 01:25:54;;;;;;;59.33;38.05;;;;;;;;;;5135702;27;20043;-72
2022/01/15 01:28:31;;;;;;;53.00;36.38;;;;;;;;;;5135931;27;20051;-66
2022/01/15 01:31:12;;;;;;;69.15;43.92;;;;;;;;;;5135944;27;20027;-66
2022/01/15 01:33:43;;;;;;;65.18;38.75;;;;;;;;;;5135492;27;20377;-71
2022/01/15 01:38:54;;;;;;;100.20;53.40;;;;;;;;;;5135831;27;20034;-73
2022/01/15 01:41:22;;;;;;;77.90;49.58;;;;;;;;;;5135815;27;20042;-71
2022/01/15 01:43:55;;;;;;;62.47;37.60;;;205.60;1996.80;;;;;;5135507;27;20362;-71
2022/01/15 01:48:52;;;;;;;41.83;26.02;;;205.70;1996.80;;;;;;5135450;27;20023;-68
2022/01/15 01:51:31;;;;;;;42.70;26.75;;;;;;;;;;5135219;27;20056;-68
2022/01/15 01:53:57;;;;;;;55.33;30.73;;;;;;;;;;5135315;27;20043;-76
2022/01/15 01:56:23;;;;;;;46.20;31.23;;;230.40;1971.20;;;;;;5135499;27;20061;-67
2022/01/15 01:58:49;;;;;;;49.88;33.55;;;230.40;1971.20;;;;;;5135578;27;20068;-68
2022/01/15 02:01:15;;;;;;;51.22;37.10;;;;;;;;;;5135634;27;20024;-67
2022/01/15 02:03:41;;;;;;;38.67;25.88;;;;;;;;;;5135091;27;20358;-71
2022/01/15 02:06:07;;;;;;;37.90;24.88;;;;;;;;;;5134901;27;20116;-67
2022/01/15 02:08:35;;;;;;;28.23;19.45;;;;;;;;;;5135236;27;20495;-68
2022/01/15 02:11:03;;;;;;;26.55;20.40;;;;;;;;;;5135129;27;20015;-68
2022/01/15 02:13:30;;;;;;;29.95;20.67;;;;;;;;;;5134854;27;20023;-72
2022/01/15 02:15:59;;;;;;;40.50;24.02;;;;;;;;;;5135052;27;20377;-76
2022/01/15 02:18:26;;;;;;;42.40;33.92;;;;;;;;;;5134762;27;20072;-71
2022/01/15 02:23:35;;;;;;;31.05;21.25;;;;;;;;;;5134640;27;20031;-67
2022/01/15 02:26:03;;;;;;;35.65;23.00;;;;;;;;;;5134532;27;20039;-69
2022/01/15 02:28:31;;;;;;;44.35;24.80;;;;;;;;;;5134661;27;20168;-75
2022/01/15 02:30:59;;;;;;;38.00;23.30;;;;;;;;;;5133917;27;20030;-68
2022/01/15 02:33:25;;;;;;;32.58;21.90;;;;;;;;;;5134968;27;20376;-74
2022/01/15 02:35:51;;;;;;;34.47;21.25;;;;;;;;;;5134359;27;20100;-67
2022/01/15 02:38:18;;;;;;;36.13;23.58;;;;;;;;;;5134377;27;20026;-73
2022/01/15 02:40:44;;;;;;;31.35;23.50;;;;;;;;;;5134429;27;20031;-74
2022/01/15 02:43:13;;;;;;;36.85;24.17;;;;;;;;;;5134284;27;20027;-67
2022/01/15 02:45:43;;;;;;;40.50;25.73;;;;;;;;;;5134340;27;20126;-66
2022/01/15 02:48:13;;;;;;;46.97;35.13;;;;;;;;;;5134648;27;20094;-68
2022/01/15 02:50:40;;;;;;;46.38;32.92;;;;;;;;;;5134025;27;20027;-66
2022/01/15 02:53:06;;;;;;;34.28;24.73;;;;;;;;;;5134027;27;20382;-68
2022/01/15 02:55:32;;;;;;;40.42;30.77;;;;;;;;;;5115273;27;20088;-73
2022/01/15 02:57:59;;;;;;;40.17;28.63;;;;;;;;;;5134706;27;20032;-71
2022/01/15 03:00:25;;;;;;;30.83;21.90;;;;;;;;;;5134081;27;20016;-70
2022/01/15 03:02:51;;;;;;;31.75;21.52;;;;;;;;;;5134085;27;20027;-68
2022/01/15 03:05:20;;;;;;;27.08;19.13;;;;;;;;;;5134229;27;20038;-66
2022/01/15 03:07:46;;;;;;;26.33;18.85;;;;;;;;;;5115436;27;20366;-71
2022/01/15 03:10:12;;;;;;;19.98;14.05;;;;;;;;;;5134412;27;20031;-70
2022/01/15 03:12:38;;;;;;;19.15;12.88;;;;;;;;;;5134002;27;20019;-65
2022/01/15 03:15:06;;;;;;;16.27;11.40;;;;;;;;;;5133742;27;20026;-68
2022/01/15 03:17:33;;;;;;;15.38;11.27;;;;;;;;;;5133902;27;20034;-73
2022/01/15 03:19:59;;;;;;;16.10;11.88;;;;;;;;;;5133920;27;20026;-69
2022/01/15 03:22:25;;;;;;;16.92;11.63;;;;;;;;;;5133623;27;20030;-73
2022/01/15 03:24:51;;;;;;;17.95;12.18;;;;;;;;;;5133634;27;20062;-66
2022/01/15 03:27:18;;;;;;;22.50;16.50;;;;;;;;;;5133919;27;20414;-68
2022/01/15 03:29:44;;;;;;;23.52;16.67;;;;;;;;;;5133526;27;20484;-67
2022/01/15 03:32:10;;;;;;;18.65;13.68;;;;;;;;;;5133622;27;20023;-66
2022/01/15 03:34:37;;;;;;;19.42;12.43;;;;;;;;;;5114691;27;20067;-70
2022/01/15 03:37:03;;;;;;;18.00;11.68;;;;;;;;;;5133234;27;20159;-68
2022/01/15 03:39:29;;;;;;;16.75;11.30;;;;;;;;;;5133286;27;20019;-67
2022/01/15 03:41:55;;;;;;;18.92;13.13;;;;;;;;;;5132644;27;20023;-67
2022/01/15 03:44:21;;;;;;;18.30;11.88;;;;;;;;;;5132680;27;20027;-69
2022/01/15 03:46:47;;;;;;;18.50;12.05;;;;;;;;;;5133045;27;20020;-72
2022/01/15 03:49:13;;;;;;;16.58;11.65;;;;;;;;;;5114855;27;20029;-68
2022/01/15 03:51:39;;;;;;;21.50;13.60;;;;;;;;;;5132801;27;20031;-67
2022/01/15 03:54:05;;;;;;;27.27;17.17;;;;;;;;;;5133229;27;20519;-69
2022/01/15 03:56:32;;;;;;;19.92;14.20;;;;;;;;;;5133224;27;20030;-68
2022/01/15 03:58:58;;;;;;;21.15;14.38;;;;;;;;;;5133195;27;20027;-67
2022/01/15 04:01:24;;;;;;;23.63;16.50;;;;;;;;;;5133286;27;20024;-67
2022/01/15 04:03:50;;;;;;;30.80;19.90;;;;;;;;;;5132962;27;20080;-68
2022/01/15 04:06:16;;;;;;;35.00;20.88;;;;;;;;;;5132863;27;20106;-68
2022/01/15 04:08:42;;;;;;;32.53;20.88;;;;;;;;;;5132571;28;20023;-67
2022/01/15 04:11:08;;;;;;;33.88;21.17;;;;;;;;;;5132700;28;20545;-67
2022/01/15 04:13:34;;;;;;;46.35;27.95;;;;;;;;;;5133055;28;20401;-68
2022/01/15 04:16:00;;;;;;;25.95;19.50;;;;;;;;;;5132698;28;20084;-67
2022/01/15 04:18:30;;;;;;;25.83;18.17;;;;;;;;;;5132933;28;20026;-66
2022/01/15 04:20:58;;;;;;;25.63;17.13;;;;;;;;;;5133063;28;20536;-71
2022/01/15 04:23:24;;;;;;;30.00;19.02;;;;;;;;;;5132623;28;20063;-70
2022/01/15 04:25:50;;;;;;;25.17;17.65;;;;;;;;;;5132576;28;20046;-66
2022/01/15 04:28:16;;;;;;;26.77;18.13;;;;;;;;;;5132706;28;20049;-66
2022/01/15 04:30:47;;;;;;;22.95;17.35;;;;;;;;;;5132750;28;20072;-72
2022/01/15 04:33:13;;;;;;;26.00;15.37;;;;;;;;;;5133170;28;20031;-71
2022/01/15 04:35:40;;;;;;;24.70;16.33;;;;;;;;;;5132748;28;20020;-71
2022/01/15 04:38:10;;;;;;;24.27;15.98;;;;;;;;;;5132800;28;20034;-67
2022/01/15 04:40:36;;;;;;;24.75;16.38;;;;;;;;;;5132786;28;20374;-69
2022/01/15 04:43:02;;;;;;;25.65;17.55;;;;;;;;;;5132489;28;20035;-67
2022/01/15 04:45:28;;;;;;;29.02;20.13;;;;;;;;;;5132530;28;20046;-70
2022/01/15 04:47:54;;;;;;;28.25;18.73;;;;;;;;;;5132539;28;20023;-67
2022/01/15 04:50:21;;;;;;;24.02;16.92;;;;;;;;;;5132971;28;20031;-67
2022/01/15 04:52:47;;;;;;;27.92;17.73;;;;;;;;;;5132644;28;20081;-65
2022/01/15 04:55:14;;;;;;;30.63;18.33;;;;;;;;;;5136233;27;20031;-69
2022/01/15 04:57:41;;;;;;;25.70;18.35;;;;;;;;;;5136861;27;20028;-71
2022/01/15 05:00:09;;;;;;;27.73;18.88;;;;;;;;;;5136565;27;20046;-69
2022/01/15 05:02:35;;;;;;;29.25;19.20;;;;;;;;;;5136870;27;20024;-71
2022/01/15 05:05:02;;;;;;;31.15;21.88;;;;;;;;;;5136844;27;20042;-66
2022/01/15 05:07:28;;;;;;;33.15;22.40;;;;;;;;;;5136782;27;20719;-67
2022/01/15 05:09:54;;;;;;;31.45;21.65;;;;;;;;;;5136664;27;20509;-72
2022/01/15 05:12:39;;;;;;;33.38;23.85;;;;;;;;;;5136644;27;20023;-72
2022/01/15 05:15:05;;;;;;;36.13;23.85;;;;;;;;;;5136414;27;20027;-72
2022/01/15 05:17:31;;;;;;;47.03;30.30;;;;;;;;;;5135949;27;20038;-69
2022/01/15 05:19:57;;;;;;;39.28;25.95;;;;;;;;;;5136026;27;20776;-69
2022/01/15 05:22:24;;;;;;;39.17;26.42;;;;;;;;;;5135925;27;20035;-70
2022/01/15 05:24:50;;;;;;;48.60;29.13;;;;;;;;;;5136028;27;20050;-66
2022/01/15 05:27:16;;;;;;;48.80;30.95;;;;;;;;;;5136049;27;20023;-66
2022/01/15 05:29:42;;;;;;;51.53;28.75;;;;;;;;;;5136076;27;20027;-66
2022/01/15 05:32:08;;;;;;;50.45;29.75;;;;;;;;;;5135875;27;20114;-72
2022/01/15 05:34:34;;;;;;;53.05;30.05;;;;;;;;;;5135965;27;20380;-68
2022/01/15 05:37:01;;;;;;;53.60;30.80;;;;;;;;;;5135909;27;20483;-66
2022/01/15 05:39:28;;;;;;;59.65;31.17;;;;;;;;;;5135453;27;20144;-69
2022/01/15 05:41:53;;;;;;;52.35;30.40;;;205.40;2201.60;;;;;;5135389;27;20027;-67
2022/01/15 05:44:19;;;;;;;56.08;30.55;;;205.50;2227.20;;;;;;5135284;27;20019;-73
2022/01/15 05:46:46;;;;;;;53.30;30.92;;;205.50;2201.60;;;;;;5135548;27;20110;-69
2022/01/15 05:49:13;;;;;;;54.83;32.72;;;;;;;;;;5135511;27;20055;-67
2022/01/15 05:51:39;;;;;;;57.25;35.28;;;;;;;;;;5135391;27;20016;-66
2022/01/15 05:54:10;;;;;;;65.75;38.40;;;;;;;;;;5135078;27;20116;-67
2022/01/15 05:56:36;;;;;;;51.55;31.55;;;;;;;;;;5135296;27;20027;-67
2022/01/15 05:59:03;;;;;;;45.53;28.90;;;;;;;;;;5135485;27;20034;-71
2022/01/15 06:01:29;;;;;;;41.00;27.45;;;;;;;;;;5135200;27;20054;-67
2022/01/15 06:03:55;;;;;;;43.25;28.30;;;;;;;;;;5135333;27;20023;-67
2022/01/15 06:06:21;;;;;;;37.63;25.35;;;;;;;;;;5134528;27;20059;-67
2022/01/15 06:08:47;;;;;;;38.58;26.80;;;;;;;;;;5135444;27;20019;-67
2022/01/15 06:11:17;;;;;;;47.38;30.80;;;;;;;;;;5135455;27;20031;-67
2022/01/15 06:13:44;;;;;;;53.80;39.28;;;;;;;;;;5135540;27;20023;-66
2022/01/15 06:16:11;;;;;;;62.67;45.22;;;;;;;;;;5135334;27;20031;-67
2022/01/15 06:18:37;;;;;;;72.70;56.45;;;;;;;;;;5135348;27;20389;-66
2022/01/15 06:21:03;;;;;;;60.85;45.33;;;;;;;;;;5135386;27;20035;-67
2022/01/15 06:23:29;;;;;;;53.13;38.55;;;;;;;;;;5134722;27;20500;-67
2022/01/15 06:25:55;;;;;;;55.00;44.08;;;;;;;;;;5134876;27;20438;-68
2022/01/15 06:28:21;;;;;;;47.00;35.20;;;;;;;;;;5135065;27;20124;-67
2022/01/15 06:30:48;;;;;;;45.38;33.42;;;;;;;;;;5135035;27;20045;-68
2022/01/15 06:33:14;;;;;;;44.05;35.58;;;;;;;;;;5134676;27;20549;-70
2022/01/15 06:35:40;;;;;;;33.67;26.38;;;;;;;;;;5134318;27;20019;-69
2022/01/15 06:38:06;;;;;;;42.38;31.10;;;;;;;;;;5133963;27;20055;-67
2022/01/15 06:40:32;;;;;;;58.40;42.63;;;;;;;;;;5134436;27;20038;-66
2022/01/15 06:43:00;;;;;;;56.40;41.28;;;;;;;;;;5134307;27;20102;-67
2022/01/15 06:45:26;;;;;;;52.70;35.28;;;;;;;;;;5134444;27;20027;-67
2022/01/15 06:47:52;;;;;;;52.42;34.17;;;;;;;;;;5134272;27;20090;-68
2022/01/15 06:50:19;;;;;;;50.05;36.20;;;;;;;;;;5115450;27;20473;-66
2022/01/15 06:52:45;;;;;;;56.15;38.83;;;;;;;;;;5134014;27;20042;-68
2022/01/15 06:55:11;;;;;;;53.92;39.10;;;;;;;;;;5134408;27;20057;-66
2022/01/15 06:57:37;;;;;;;66.80;55.45;;;;;;;;;;5125506;27;20110;-65
2022/01/15 07:00:07;;;;;;;61.67;42.33;;;;;;;;;;5134085;27;20045;-67
2022/01/15 07:02:33;;;;;;;53.17;38.80;;;;;;;;;;5133973;27;20062;-71
2022/01/15 07:04:59;;;;;;;48.55;35.83;;;;;;;;;;5133955;27;20389;-72
2022/01/15 07:07:26;;;;;;;48.15;35.00;;;;;;;;;;5134143;27;20022;-69
2022/01/15 07:09:52;;;;;;;52.78;35.70;;;;;;;;;;5133747;27;20199;-71
2022/01/15 07:12:18;;;;;;;54.65;40.38;;;;;;;;;;5133889;27;20023;-75
2022/01/15 07:14:44;;;;;;;73.97;47.75;;;;;;;;;;5134002;27;20027;-76
2022/01/15 07:17:10;;;;;;;67.68;45.60;;;;;;;;;;5134359;27;20020;-72
2022/01/15 07:19:37;;;;;;;56.00;40.95;;;;;;;;;;5133966;27;20418;-76
2022/01/15 07:22:03;;;;;;;59.78;43.35;;;;;;;;;;5133645;27;20031;-67
2022/01/15 07:24:29;;;;;;;59.30;41.65;;;;;;;;;;5133602;27;20027;-66
2022/01/15 07:26:56;;;;;;;58.15;38.28;;;;;;;;;;5133884;27;20023;-67
2022/01/15 07:29:24;;;;;;;67.72;44.67;;;;;;;;;;5133632;27;20098;-70
2022/01/15 07:31:51;;;;;;;94.90;60.80;;;;;;;;;;5133418;27;20492;-71
2022/01/15 07:34:17;;;;;;;80.65;57.10;;;;;;;;;;5133420;27;20027;-67
2022/01/15 07:36:44;;;;;;;68.05;44.00;;;;;;;;;;5133724;27;20030;-67
2022/01/15 07:39:10;;;;;;;66.85;44.03;;;;;;;;;;5133389;27;20023;-74
2022/01/15 07:41:37;;;;;;;74.78;51.05;;;;;;;;;;5133345;27;20031;-76
2022/01/15 07:44:03;;;;;;;72.10;49.33;;;;;;;;;;5133372;27;20019;-76
2022/01/15 07:46:29;;;;;;;68.00;48.63;;;;;;;;;;5133465;27;20043;-74
2022/01/15 07:48:55;;;;;;;63.97;44.55;;;;;;;;;;5133494;27;20019;-66
2022/01/15 07:51:21;;;;;;;56.53;43.38;;;;;;;;;;5133199;27;20027;-76
2022/01/15 07:53:47;;;;;;;61.95;47.25;;;;;;;;;;5114173;27;20058;-69
2022/01/15 07:56:13;;;;;;;72.85;47.53;;;;;;;;;;5133261;27;20060;-71
2022/01/15 07:58:41;;;;;;;67.97;46.78;;;;;;;;;;5133177;27;20043;-66
2022/01/15 08:01:07;;;;;;;67.03;45.30;;;;;;;;;;5133278;27;20393;-76
2022/01/15 08:03:33;;;;;;;86.90;58.50;;;;;;;;;;5133241;27;20039;-74
2022/01/15 08:05:59;;;;;;;76.60;53.10;;;;;;;;;;5132896;27;20031;-68
2022/01/15 08:08:25;;;;;;;67.53;48.88;;;;;;;;;;5132932;28;20039;-74
2022/01/15 08:10:51;;;;;;;71.97;49.92;;;;;;;;;;5133381;28;20353;-74
2022/01/15 08:13:19;;;;;;;72.90;51.40;;;;;;;;;;5132494;28;20022;-72
2022/01/15 08:15:45;;;;;;;80.97;57.58;;;;;;;;;;5132647;28;20023;-67
2022/01/15 08:18:11;;;;;;;88.45;63.83;;;;;;;;;;5132938;28;20385;-68
2022/01/15 08:20:37;;;;;;;88.45;63.03;;;;;;;;;;5132793;28;20027;-72
2022/01/15 08:23:03;;;;;;;88.25;58.47;;;;;;;;;;5114968;28;20706;-72
2022/01/15 08:25:30;;;;;;;81.90;55.78;;;;;;;;;;5133157;28;20039;-82
2022/01/15 08:27:56;;;;;;;67.97;48.42;;;;;;;;;;5133272;27;20476;-73
2022/01/15 08:30:23;;;;;;;71.63;49.53;;;;;;;;;;5137049;27;20087;-82
2022/01/15 08:32:49;;;;;;;84.78;60.85;;;;;;;;;;5138103;27;20046;-69
2022/01/15 08:35:15;;;;;;;82.70;57.28;;;;;;;;;;5124075;27;20579;-75
2022/01/15 08:37:42;;;;;;;86.20;56.92;;;;;;;;;;5136042;27;20716;-71
2022/01/15 08:40:09;;;;;;;68.55;46.83;;;;;;;;;;5117535;27;20469;-74
2022/01/15 08:42:36;;;;;;;80.35;52.10;;;;;;;;;;5117590;27;20027;-71
2022/01/15 08:45:05;;;;;;;90.30;67.80;;;;;;;;;;5133277;27;20102;-71
2022/01/15 08:47:31;;;;;;;102.32;87.38;;;;;;;;;;5133486;27;20014;-74
2022/01/15 08:49:57;;;;;;;75.65;51.30;;;;;;;;;;5136046;27;20019;-73
2022/01/15 08:52:23;;;;;;;72.30;48.15;;;;;;;;;;5132697;27;20043;-72
2022/01/15 08:54:50;;;;;;;67.50;46.33;;;;;;;;;;5135777;27;20027;-67
2022/01/15 08:57:16;;;;;;;68.50;51.00;;;;;;;;;;5135660;27;20047;-68
2022/01/15 08:59:42;;;;;;;74.50;50.17;;;;;;;;;;5135633;27;20019;-71
2022/01/15 09:02:08;;;;;;;70.97;49.65;;;;;;;;;;5135892;27;20462;-72
2022/01/15 09:04:34;;;;;;;78.53;55.40;;;;;;;;;;5117415;27;20035;-70
2022/01/15 09:07:00;;;;;;;78.93;53.05;;;;;;;;;;5135615;27;20072;-68
2022/01/15 09:09:26;;;;;;;92.28;62.10;;;;;;;;;;5135663;27;20022;-67
2022/01/15 09:11:52;;;;;;;63.70;44.75;;;;;;;;;;5135879;27;20049;-74
2022/01/15 09:14:18;;;;;;;56.05;40.20;;;;;;;;;;5136632;27;20112;-72
2022/01/15 09:16:45;;;;;;;51.45;37.55;;;;;;;;;;5136231;27;20023;-72
2022/01/15 09:19:14;;;;;;;53.92;37.85;;;;;;;;;;5136003;27;20132;-80
2022/01/15 09:21:40;;;;;;;59.22;42.10;;;;;;;;;;5136134;27;20033;-76
2022/01/15 09:24:06;;;;;;;54.17;38.20;;;;;;;;;;5135506;27;20069;-74
2022/01/15 09:32:03;;;;;;;69.45;51.38;;;;;;;;;;5136554;27;20037;-77
2022/01/15 09:34:29;;;;;;;58.72;41.38;;;;;;;;;;5135702;27;20132;-73
2022/01/15 09:36:55;;;;;;;70.07;49.28;;;;;;;;;;5130312;27;20015;-68
2022/01/15 09:39:23;;;;;;;59.95;41.10;;;;;;;;;;5132563;27;20019;-78
2022/01/15 09:41:51;;;;;;;60.83;41.15;;;;;;;;;;5133793;27;20051;-72
2022/01/15 09:44:18;;;;;;;87.95;55.95;;;205.60;2201.60;;;;;;5135394;27;20019;-78
2022/01/15 09:46:47;;;;;;;63.22;41.65;;;205.40;2227.20;;;;;;5135024;27;20039;-71
2022/01/15 09:49:17;;;;;;;74.03;44.35;;;;;;;;;;5125362;27;20101;-68
2022/01/15 09:51:44;;;;;;;92.63;57.67;;;;;;;;;;5134466;27;20031;-77
2022/01/15 09:54:13;;;;;;;88.53;56.60;;;;;;;;;;5134650;27;20043;-76
2022/01/15 09:56:39;;;;;;;69.45;43.60;;;;;;;;;;5114714;28;20032;-73
2022/01/15 09:59:05;;;;;;;63.08;41.40;;;;;;;;;;5114748;28;20481;-79
2022/01/15 10:01:31;;;;;;;75.15;47.38;;;205.70;2252.80;;;;;;5131853;27;20127;-76
2022/01/15 10:03:58;;;;;;;75.00;46.15;;;205.70;2252.80;;;;;;5134700;27;20015;-75
2022/01/15 10:06:24;;;;;;;83.95;52.63;;;205.60;2227.20;;;;;;5134874;27;20031;-71
2022/01/15 10:09:09;;;;;;;50.92;36.53;;;205.60;2227.20;;;;;;5134849;27;20019;-74
2022/01/15 10:11:46;;;;;;;83.07;52.50;;;;;;;;;;5116821;27;20069;-74
2022/01/15 10:14:29;;;;;;;50.00;33.13;;;;;;;;;;5134760;27;20560;-76
2022/01/15 10:16:56;;;;;;;44.45;30.25;;;230.40;2176.00;;;;;;5124733;27;20047;-75
2022/01/15 10:19:37;;;;;;;40.35;29.25;;;205.70;2227.20;;;;;;5114271;28;20024;-75
2022/01/15 10:22:05;;;;;;;54.65;37.38;;;205.70;2227.20;;;;;;5114344;28;20119;-77
2022/01/15 10:24:31;;;;;;;47.50;30.60;;;;;;;;;;5134353;27;20027;-79
2022/01/15 10:27:18;;;;;;;42.17;27.00;;;230.70;2150.40;;;;;;5115978;27;20104;-72
2022/01/15 10:30:08;;;;;;;51.85;34.55;;;230.80;2124.80;;;;;;5134799;27;20030;-73
2022/01/15 10:32:36;;;;;;;38.97;26.65;;;;;;;;;;5116420;27;20560;-80
2022/01/15 10:35:09;;;;;;;39.78;27.27;;;;;;;;;;5134670;27;20042;-73
2022/01/15 10:37:46;;;;;;;34.33;24.52;;;;;;;;;;5116107;27;20027;-71
2022/01/15 10:40:13;;;;;;;37.03;24.80;;;;;;;;;;5134565;27;20035;-68
2022/01/15 10:42:39;;;;;;;30.17;21.35;;;;;;;;;;5134603;27;20084;-68
2022/01/15 10:45:14;;;;;;;39.90;26.58;;;230.60;2073.60;;;;;;5134336;27;20122;-73
2022/01/15 10:47:47;;;;;;;31.02;22.35;;;230.80;2124.80;;;;;;5134341;27;20069;-68
2022/01/15 10:50:25;;;;;;;29.67;21.65;;;230.70;2124.80;;;;;;5134455;27;20518;-74
2022/01/15 10:52:52;;;;;;;39.65;29.42;;;230.90;2124.80;;;;;;5133452;27;20139;-73
2022/01/15 10:55:23;;;;;;;53.15;35.67;;;;;;;;;;5133889;27;20038;-74
2022/01/15 10:58:01;;;;;;;34.88;25.00;;;231.30;2073.60;;;;;;5133846;27;20114;-68
2022/01/15 11:00:39;;;;;;;42.00;29.73;;;256.00;2022.40;;;;;;5134213;27;20046;-70
2022/01/15 11:03:07;;;;;;;33.08;23.50;;;231.20;2048.00;;;;;;5133376;27;20031;-76
2022/01/15 11:05:34;;;;;;;38.33;26.95;;;256.00;2022.40;;;;;;5133712;27;20096;-72
2022/01/15 11:08:03;;;;;;;39.55;27.80;;;256.00;1996.80;;;;;;5133636;27;20027;-76
2022/01/15 11:10:35;;;;;;;34.67;22.27;;;256.00;2048.00;;;;;;5115361;27;20076;-72
2022/01/15 11:13:04;;;;;;;44.38;28.20;;;256.00;2022.40;;;;;;5133699;27;20016;-69
2022/01/15 11:15:30;;;;;;;38.35;25.98;;;256.10;2022.40;;;;;;5133611;27;20079;-73
2022/01/15 11:17:56;;;;;;;52.65;34.08;;;256.10;1996.80;;;;;;5132119;27;20027;-73
2022/01/15 11:20:23;;;;;;;51.45;32.20;;;;;;;;;;5132093;27;20027;-76
2022/01/15 11:22:52;;;;;;;42.20;28.73;;;256.20;1996.80;;;;;;5134296;27;20377;-73
2022/01/15 11:25:18;;;;;;;62.05;47.17;;;;;;;;;;5133510;27;20039;-74
2022/01/15 11:27:46;;;;;;;38.10;30.35;;;231.30;2124.80;;;;;;5133351;27;20504;-72
2022/01/15 11:30:12;;;;;;;39.50;29.30;;;256.10;2022.40;;;;;;5133566;27;20027;-76
2022/01/15 11:32:41;;;;;;;63.22;46.17;;;256.30;1996.80;;;;;;5133354;27;20068;-75
2022/01/15 11:35:09;;;;;;;91.38;61.92;;;;;;;;;;5133147;27;20034;-76
2022/01/15 11:37:47;;;;;;;69.95;51.33;;;;;;;;;;5133148;27;20027;-74
2022/01/15 11:40:38;;;;;;;82.80;54.33;;;281.60;1945.60;;;;;;5133472;27;20072;-73
2022/01/15 11:43:29;;;;;;;88.57;53.85;;;;;;;;;;5133346;27;20031;-73
2022/01/15 11:45:56;;;;;;;61.13;40.33;;;;;;;;;;5029810;28;20041;-75
2022/01/15 11:48:24;;;;;;;101.50;67.07;;;;;;;;;;5029918;28;20116;-76
2022/01/15 11:51:08;;;;;;;52.85;37.85;;;;;;;;;;5030071;28;20041;-73
2022/01/15 11:53:54;;;;;;;81.25;53.28;;;;;;;;;;5029209;28;20065;-72
2022/01/15 11:56:21;;;;;;;66.28;49.38;;;;;;;;;;5029596;28;20045;-74
2022/01/15 11:58:47;;;;;;;48.13;37.75;;;;;;;;;;5029534;28;20021;-71
2022/01/15 12:01:32;;;;;;;43.58;38.90;;;;;;;;;;5029514;28;20029;-76
2022/01/15 12:04:16;;;;;;;37.28;31.98;;;;;;;;;;5029147;28;20041;-75
2022/01/15 12:07:01;;;;;;;28.88;25.55;;;;;;;;;;5012930;28;20068;-72
2022/01/15 12:09:39;;;;;;;25.42;19.90;;;;;;;;;;5029579;28;20034;-75
2022/01/15 12:12:18;;;;;;;29.67;21.40;;;;;;;;;;5029362;28;20033;-74
2022/01/15 12:14:51;;;;;;;27.75;18.70;;;;;;;;;;5029366;28;20554;-71
2022/01/15 12:17:26;;;;;;;23.45;15.43;;;;;;;;;;5029933;28;20113;-73
2022/01/15 12:19:53;;;;;;;34.30;22.88;;;410.40;1254.40;;;;;;5029673;28;20563;-70
2022/01/15 12:22:36;;;;;;;33.65;21.52;;;410.40;1254.40;;;;;;5056767;28;20035;-72
2022/01/15 12:25:05;;;;;;;27.20;19.10;;;410.40;1280.00;;;;;;5113877;28;20313;-71
2022/01/15 12:27:32;;;;;;;53.40;33.70;;;410.40;1280.00;;;;;;5132547;28;20492;-75
2022/01/15 12:30:03;;;;;;;47.42;34.88;;;410.20;1305.60;;;;;;5132815;28;20094;-72
2022/01/15 12:32:36;;;;;;;38.50;26.42;;;410.40;1280.00;;;;;;5132642;28;20047;-74
2022/01/15 12:35:03;;;;;;;39.45;30.88;;;410.50;1280.00;;;;;;5132507;28;20061;-69
2022/01/15 12:37:29;;;;;;;34.03;25.77;;;410.50;1254.40;;;;;;5132630;28;20478;-76
2022/01/15 12:39:55;;;;;;;74.55;58.40;;;;;;;;;;5132210;28;20022;-76
2022/01/15 12:42:29;;;;;;;41.20;33.53;;;435.50;1228.80;;;;;;5132371;28;20031;-70
2022/01/15 12:44:56;;;;;;;53.95;48.17;;;435.30;1254.40;;;;;;5132462;28;20038;-69
2022/01/15 12:47:22;;;;;;;37.40;29.60;;;435.30;1254.40;;;;;;5132397;28;20023;-71
2022/01/15 12:49:51;;;;;;;48.08;34.67;;;435.30;1254.40;;;;;;5132409;28;20072;-70
2022/01/15 12:52:25;;;;;;;49.85;38.95;;;435.40;1228.80;;;;;;5132055;28;20030;-72
2022/01/15 12:54:53;;;;;;;35.13;27.23;;;435.50;1228.80;;;;;;5129656;28;20043;-75
2022/01/15 12:57:48;;;;;;;36.40;27.45;;;435.40;1254.40;;;;;;5128438;28;20087;-76
2022/01/15 13:00:18;;;;;;;29.50;23.35;;;435.40;1254.40;;;;;;5132205;28;20106;-75
2022/01/15 13:02:45;;;;;;;33.88;26.92;;;435.40;1228.80;;;;;;5132449;28;20058;-70
2022/01/15 13:05:17;;;;;;;32.00;24.83;;;435.30;1254.40;;;;;;5132303;28;20051;-75
2022/01/15 13:07:48;;;;;;;30.98;22.00;;;435.40;1228.80;;;;;;5132013;28;20111;-76
2022/01/15 13:10:51;;;;;;;35.28;25.90;;;435.20;1254.40;;;;;;5132472;28;20023;-70
2022/01/15 13:13:35;;;;;;;32.30;25.98;;;435.30;1228.80;;;;;;5132597;28;20035;-72
2022/01/15 13:16:04;;;;;;;34.17;25.85;;;435.30;1254.40;;;;;;5135869;27;20088;-71
2022/01/15 13:18:39;;;;;;;33.33;25.58;;;435.20;1254.40;;;;;;5136228;27;20046;-70
2022/01/15 13:21:26;;;;;;;35.45;25.83;;;410.50;1254.40;;;;;;5136221;27;20027;-74
2022/01/15 13:24:07;;;;;;;27.52;21.88;;;410.50;1254.40;;;;;;5134944;27;20047;-74
2022/01/15 13:26:38;;;;;;;21.87;17.10;;;435.20;1254.40;;;;;;5136066;27;20031;-76
2022/01/15 13:29:06;;;;;;;27.70;20.67;;;410.40;1280.00;;;;;;5135889;27;20015;-73
2022/01/15 13:31:33;;;;;;;27.23;20.50;;;;;;;;;;5136091;27;20050;-75
2022/01/15 13:34:08;;;;;;;29.50;21.15;;;;;;;;;;5135708;27;20019;-78
2022/01/15 13:36:35;;;;;;;29.15;21.92;;;;;;;;;;5135801;27;20027;-78
2022/01/15 13:39:04;;;;;;;33.67;24.65;;;;;;;;;;5135723;27;20115;-77
2022/01/15 13:41:33;;;;;;;42.30;34.47;;;384.80;1280.00;;;;;;5136061;27;20075;-74
2022/01/15 13:44:05;;;;;;;35.88;29.02;;;;;;;;;;5135705;27;20102;-70
2022/01/15 13:46:36;;;;;;;33.97;25.73;;;;;;;;;;5135773;27;20035;-76
2022/01/15 13:49:11;;;;;;;34.70;25.45;;;384.40;1510.40;;;;;;5135660;27;20434;-69
2022/01/15 13:54:31;;;;;;;35.42;25.30;;;;;;;;;;5135690;27;20049;-75
2022/01/15 13:57:12;;;;;;;33.75;26.30;;;;;;;;;;5135214;27;20473;-72
2022/01/15 13:59:40;;;;;;;40.00;29.52;;;;;;;;;;5135312;27;20054;-75
2022/01/15 14:02:06;;;;;;;41.85;28.58;;;;;;;;;;5135381;27;20461;-71
2022/01/15 14:04:33;;;;;;;41.25;26.85;;;359.00;1382.40;;;;;;5116890;27;20469;-71
2022/01/15 14:07:05;;;;;;;42.38;28.63;;;;;;;;;;5135170;27;20053;-70
2022/01/15 14:09:36;;;;;;;46.72;27.88;;;358.80;1766.40;;;;;;5135295;27;20031;-73
2022/01/15 14:12:07;;;;;;;41.75;27.75;;;;;;;;;;5135442;27;20440;-73
2022/01/15 14:14:34;;;;;;;37.78;25.35;;;;;;;;;;5135228;27;20365;-76
2022/01/15 14:17:03;;;;;;;36.85;26.83;;;358.40;1459.20;;;;;;5135176;27;20031;-69
2022/01/15 14:20:00;;;;;;;34.13;24.08;;;;;;;;;;5135255;27;20076;-78
2022/01/15 14:22:27;;;;;;;39.50;25.35;;;333.50;1459.20;;;;;;5134993;27;20038;-70